Englewood, Illinois
Current Conditions -  °F | °C
As of 4:53 AM on Sunday 21 Dec 2014 (Local Time) from KMDW Reporting Station
Overcast Overcast  
Wind Chill: 28°   Ceiling: 3600
Heat Index: 34°   Visibility: 10mi
Dew Point: 27°   Wind: 7mph
Humidity: 75%   Direction: 180°S
Pressure: 30.22"   Gusts: NA
Location:  41.7763°N, 87.6399°W
Report Text: KMDW 211053Z 18006KT 10SM OVC036 01/M03 A3022 RMK AO2 SLP245 T00111028
Loading
Personal Weather Stations






























Interactive Weather Map New forecast layout! Learn more

10-Day Weather Forecast

Advertisements
Track Severe Weather on mobile